createdAt,value
2022-11-14T05:16:01.836Z,11.80
2022-11-14T05:18:47.289Z,9.70
2022-11-14T05:21:32.539Z,6.90
2022-11-14T05:24:20.942Z,6.50
2022-11-14T05:27:05.906Z,7.15
2022-11-14T05:29:50.888Z,7.45
2022-11-14T05:32:35.939Z,8.20
2022-11-14T05:35:20.902Z,7.07
2022-11-14T05:38:05.833Z,10.63
2022-11-14T05:40:50.848Z,10.40
2022-11-14T05:43:36.663Z,10.15
2022-11-14T05:46:21.533Z,6.53
2022-11-14T05:49:06.564Z,7.20
2022-11-14T05:51:51.519Z,8.55
2022-11-14T05:54:36.608Z,12.55
2022-11-14T05:58:13.191Z,10.90
2022-11-14T06:01:25.466Z,9.93
2022-11-14T06:04:22.359Z,10.80
2022-11-14T06:07:07.899Z,8.60
2022-11-14T06:09:53.149Z,10.35
2022-11-14T06:12:38.006Z,11.13
2022-11-14T06:15:23.089Z,11.60
2022-11-14T06:18:07.981Z,14.25
2022-11-14T06:20:52.892Z,10.68
2022-11-14T06:23:38.684Z,11.00
2022-11-14T06:26:26.058Z,11.60
2022-11-14T06:29:11.446Z,12.35
2022-11-14T06:31:56.575Z,13.73
2022-11-14T06:34:41.717Z,9.40
2022-11-14T06:37:29.407Z,14.07
2022-11-14T06:40:17.828Z,12.73
2022-11-14T06:43:02.931Z,10.57
2022-11-14T06:45:47.958Z,13.48
2022-11-14T06:48:33.374Z,13.25
2022-11-14T06:51:19.002Z,14.20
2022-11-14T06:54:05.368Z,13.63
2022-11-14T06:56:50.665Z,15.30
2022-11-14T06:59:35.784Z,16.27
2022-11-14T07:02:22.150Z,17.00
2022-11-14T07:05:08.913Z,13.30
2022-11-14T07:07:58.891Z,13.35
2022-11-14T07:10:46.096Z,19.92
2022-11-14T07:13:34.512Z,14.07
2022-11-14T07:16:20.616Z,13.07
2022-11-14T07:19:09.685Z,14.32
2022-11-14T07:21:54.475Z,16.35
2022-11-14T07:24:39.495Z,17.15
2022-11-14T07:27:28.608Z,16.63
2022-11-14T07:30:13.763Z,14.00
2022-11-14T07:32:59.639Z,17.10
2022-11-14T07:35:44.545Z,17.95
2022-11-14T07:38:34.603Z,20.48
2022-11-14T07:41:23.166Z,24.17
2022-11-14T07:44:08.567Z,19.50
2022-11-14T07:46:53.903Z,17.42
2022-11-14T07:49:39.029Z,20.33
2022-11-14T07:52:24.182Z,18.30
2022-11-14T07:55:09.590Z,18.67
2022-11-14T07:57:59.026Z,22.15
2022-11-14T08:00:48.219Z,22.88
2022-11-14T08:03:34.370Z,21.02
2022-11-14T08:06:19.630Z,23.95
2022-11-14T08:10:02.815Z,22.33
2022-11-14T08:12:52.814Z,25.02
2022-11-14T08:15:49.683Z,27.80
2022-11-14T08:18:34.615Z,22.27
2022-11-14T08:21:19.338Z,28.27
2022-11-14T08:24:04.605Z,22.42
2022-11-14T08:26:49.759Z,25.40
2022-11-14T08:29:34.629Z,20.58
2022-11-14T08:32:19.795Z,24.90
2022-11-14T08:36:03.110Z,24.48
2022-11-14T08:43:40.099Z,32.60
2022-11-14T08:46:25.073Z,24.52
2022-11-14T08:49:10.086Z,21.30
2022-11-14T08:51:55.112Z,25.10
2022-11-14T08:54:40.332Z,23.67
2022-11-14T08:57:25.251Z,22.70
2022-11-14T09:00:36.177Z,25.98
2022-11-14T09:03:21.774Z,24.65
2022-11-14T09:06:06.913Z,28.38
2022-11-14T09:08:57.714Z,24.08
2022-11-14T09:11:42.930Z,22.45
2022-11-14T09:14:34.275Z,26.00
2022-11-14T09:17:19.647Z,23.92
2022-11-14T09:20:05.043Z,21.58
2022-11-14T09:22:53.260Z,20.55
2022-11-14T09:25:40.578Z,18.90
2022-11-14T09:28:26.059Z,24.17
2022-11-14T09:31:13.317Z,23.58
2022-11-14T09:33:58.552Z,23.80
2022-11-14T09:36:43.784Z,18.52
2022-11-14T09:39:30.977Z,27.17
2022-11-14T09:42:41.243Z,22.25
2022-11-14T09:45:57.724Z,19.33
2022-11-14T09:48:44.366Z,22.48
2022-11-14T09:51:44.657Z,22.38
2022-11-14T09:54:55.785Z,21.38
2022-11-14T09:57:46.144Z,25.60
2022-11-14T10:01:34.094Z,29.70
2022-11-14T10:04:44.003Z,22.92
2022-11-14T10:07:51.685Z,17.90
2022-11-14T10:11:01.784Z,23.52
2022-11-14T10:14:36.644Z,17.10
2022-11-14T10:17:27.296Z,18.38
2022-11-14T10:20:26.851Z,17.45
2022-11-14T10:23:52.031Z,15.02
2022-11-14T10:27:03.420Z,16.98
2022-11-14T10:29:57.520Z,14.57
2022-11-14T10:33:08.566Z,12.32
2022-11-14T10:36:07.586Z,14.00
2022-11-14T10:39:15.891Z,13.05
2022-11-14T10:42:29.776Z,14.80
2022-11-14T10:45:29.365Z,13.90
2022-11-14T10:48:35.285Z,12.32
2022-11-14T10:51:39.382Z,10.60
2022-11-14T10:54:40.928Z,15.48
2022-11-14T10:57:31.517Z,18.52
2022-11-14T11:00:19.398Z,12.23
2022-11-14T11:03:04.570Z,12.10
2022-11-14T11:05:57.612Z,9.50
2022-11-14T11:09:31.938Z,13.27
2022-11-14T11:12:21.638Z,12.88
2022-11-14T11:15:15.482Z,13.35
2022-11-14T11:18:34.687Z,12.40
2022-11-14T11:21:22.391Z,9.38
2022-11-14T11:24:08.737Z,13.05
2022-11-14T11:27:22.769Z,12.23
2022-11-14T11:30:18.231Z,10.20
2022-11-14T11:33:16.953Z,9.13
2022-11-14T11:36:19.857Z,11.73
2022-11-14T11:39:04.910Z,12.63
2022-11-14T11:42:10.185Z,11.70
2022-11-14T11:45:51.338Z,15.02
2022-11-14T11:49:10.513Z,11.18
2022-11-14T11:52:01.923Z,12.45
2022-11-14T11:55:04.869Z,16.77
2022-11-14T11:58:17.850Z,12.95
2022-11-14T12:01:13.517Z,10.98
2022-11-14T12:04:01.422Z,11.40
2022-11-14T12:06:58.746Z,9.68
2022-11-14T12:10:09.190Z,13.45
2022-11-14T12:13:28.953Z,11.20
2022-11-14T12:16:46.522Z,10.35
2022-11-14T12:20:15.178Z,10.73
2022-11-14T12:24:03.236Z,10.07
2022-11-14T12:31:13.944Z,10.77
2022-11-14T12:34:02.897Z,14.10
2022-11-14T12:36:49.485Z,9.32
2022-11-14T12:39:35.806Z,9.88
2022-11-14T12:42:32.244Z,10.75
2022-11-14T12:45:40.731Z,11.45
2022-11-14T12:48:26.757Z,11.82
2022-11-14T12:51:25.867Z,10.05
2022-11-14T12:54:47.728Z,9.80
2022-11-14T12:57:49.691Z,9.75
2022-11-14T13:01:04.473Z,11.18
2022-11-14T13:04:13.680Z,9.93
2022-11-14T13:07:14.227Z,14.55
2022-11-14T13:10:09.560Z,11.48
2022-11-14T13:13:30.315Z,10.88
2022-11-14T13:16:48.541Z,10.35
2022-11-14T13:19:52.296Z,10.77
2022-11-14T13:22:41.811Z,11.27
2022-11-14T13:25:27.607Z,14.63
2022-11-14T13:28:39.143Z,25.10
2022-11-14T13:31:36.592Z,9.43
2022-11-14T13:34:46.186Z,12.15
2022-11-14T13:38:01.546Z,12.13
2022-11-14T13:41:28.070Z,10.77
2022-11-14T13:44:47.772Z,11.90
2022-11-14T13:47:59.095Z,12.15
2022-11-14T13:50:50.176Z,13.40
2022-11-14T13:53:41.036Z,8.55
2022-11-14T14:00:56.808Z,9.90
2022-11-14T14:03:53.791Z,10.25
2022-11-14T14:06:59.752Z,9.50
2022-11-14T14:10:15.585Z,9.32
2022-11-14T14:13:24.585Z,9.93
2022-11-14T14:16:35.310Z,10.55
2022-11-14T14:19:56.698Z,8.13
2022-11-14T14:22:45.379Z,8.30
2022-11-14T14:26:14.599Z,9.93
2022-11-14T14:29:30.699Z,11.95
2022-11-14T14:32:18.172Z,6.35
2022-11-14T14:35:21.827Z,10.38
2022-11-14T14:38:21.717Z,9.75
2022-11-14T14:41:07.182Z,10.00
2022-11-14T14:43:56.089Z,10.40
2022-11-14T14:46:41.403Z,10.75
2022-11-14T14:49:38.050Z,7.80
2022-11-14T14:52:33.008Z,6.97
2022-11-14T14:58:30.075Z,3.45
2022-11-14T15:01:43.224Z,4.25
2022-11-14T15:04:29.967Z,6.20
2022-11-14T15:07:26.832Z,3.58
2022-11-14T15:10:21.251Z,5.95
2022-11-14T15:13:14.120Z,4.82
2022-11-14T15:15:59.935Z,4.95
2022-11-14T15:18:53.300Z,5.15
2022-11-14T15:22:29.218Z,8.30
2022-11-14T15:25:14.164Z,6.18
2022-11-14T15:28:30.480Z,6.43
2022-11-14T15:31:21.681Z,4.80
2022-11-14T15:34:25.739Z,5.82
2022-11-14T15:38:36.667Z,4.43
2022-11-14T15:41:19.981Z,5.78
2022-11-14T15:44:05.601Z,3.45
2022-11-14T15:46:50.923Z,6.57
2022-11-14T15:49:39.610Z,4.75
2022-11-14T15:53:17.681Z,6.18
2022-11-14T15:56:03.950Z,5.22
2022-11-14T15:58:53.724Z,5.18
2022-11-14T16:01:38.851Z,4.05
2022-11-14T16:04:29.464Z,5.60
2022-11-14T16:07:16.704Z,4.97
2022-11-14T16:10:01.956Z,11.05
2022-11-14T16:12:52.262Z,4.32
2022-11-14T16:15:37.981Z,6.05
2022-11-14T16:18:23.136Z,7.88
2022-11-14T16:21:18.274Z,7.32
2022-11-14T16:24:03.658Z,7.47
2022-11-14T16:26:52.034Z,6.82
2022-11-14T16:29:37.095Z,7.22
2022-11-14T16:32:23.356Z,7.68
2022-11-14T16:35:20.660Z,7.30
2022-11-14T16:38:05.548Z,9.68
2022-11-14T16:40:50.486Z,10.82
2022-11-14T16:43:35.523Z,10.20
2022-11-14T16:46:20.918Z,6.82
2022-11-14T16:49:05.992Z,9.75
2022-11-14T16:51:51.956Z,7.68
2022-11-14T16:54:37.148Z,6.88
2022-11-14T16:57:23.035Z,7.43
2022-11-14T17:00:13.713Z,8.23
2022-11-14T17:02:58.933Z,6.70
2022-11-14T17:05:45.806Z,9.20
2022-11-14T17:08:30.736Z,7.32
2022-11-14T17:11:15.719Z,9.07
2022-11-14T17:14:00.863Z,7.63
2022-11-14T17:16:46.723Z,6.90
2022-11-14T17:19:31.764Z,6.22
2022-11-14T17:22:18.345Z,9.32
2022-11-14T17:25:03.404Z,5.10
2022-11-14T17:27:49.037Z,8.02
2022-11-14T17:30:34.059Z,8.25
2022-11-14T17:33:19.159Z,6.65
2022-11-14T17:36:07.000Z,7.38
2022-11-14T17:38:52.492Z,10.68
2022-11-14T17:41:38.591Z,6.95
2022-11-14T17:44:24.438Z,7.15
2022-11-14T17:47:34.946Z,7.78
2022-11-14T17:50:20.117Z,5.47
2022-11-14T17:53:05.531Z,8.15
2022-11-14T17:55:59.137Z,6.38
2022-11-14T17:58:45.066Z,7.53
2022-11-14T18:01:31.697Z,7.75
2022-11-14T18:04:17.102Z,8.05
2022-11-14T18:07:02.478Z,5.70
2022-11-14T18:10:17.254Z,8.82
2022-11-14T18:13:05.091Z,6.97
2022-11-14T18:15:50.705Z,10.77
2022-11-14T18:18:37.244Z,7.80
2022-11-14T18:21:25.290Z,9.18
2022-11-14T18:24:12.965Z,7.38
2022-11-14T18:27:02.129Z,8.55
2022-11-14T18:29:47.307Z,8.55
2022-11-14T18:32:32.957Z,6.85
2022-11-14T18:35:17.933Z,12.48
2022-11-14T18:38:03.228Z,6.78
2022-11-14T18:40:51.693Z,6.57
2022-11-14T18:43:40.116Z,9.20
2022-11-14T18:46:25.777Z,15.32
2022-11-14T18:49:11.116Z,7.38
2022-11-14T18:51:57.549Z,9.57
2022-11-14T18:54:42.910Z,11.07
2022-11-14T18:57:31.325Z,8.27
2022-11-14T19:00:17.522Z,10.80
2022-11-14T19:03:06.224Z,12.13
2022-11-14T19:05:55.740Z,9.77
2022-11-14T19:08:41.786Z,12.05
2022-11-14T19:11:46.773Z,14.90
2022-11-14T19:18:23.212Z,8.02
2022-11-14T19:21:09.737Z,12.48
2022-11-14T19:23:56.015Z,8.98
2022-11-14T19:26:41.763Z,11.55
2022-11-14T19:29:27.722Z,11.75
2022-11-14T19:32:14.083Z,13.90
2022-11-14T19:35:00.310Z,10.48
2022-11-14T19:37:46.094Z,10.98
2022-11-14T19:40:31.684Z,13.18
2022-11-14T19:43:20.260Z,9.50
2022-11-14T19:46:07.569Z,10.73
2022-11-14T19:49:01.298Z,16.50
2022-11-14T19:51:47.925Z,13.07
2022-11-14T19:54:34.160Z,15.18
2022-11-14T19:57:20.369Z,14.25
2022-11-14T20:00:06.628Z,18.95
2022-11-14T20:02:58.711Z,14.02
2022-11-14T20:05:44.119Z,10.82
2022-11-14T20:08:35.524Z,11.73
2022-11-14T20:11:27.742Z,14.60
2022-11-14T20:14:14.838Z,13.38
2022-11-14T20:17:01.590Z,11.65
2022-11-14T20:19:47.688Z,10.40
2022-11-14T20:22:33.475Z,13.32
2022-11-14T20:25:22.205Z,11.35
2022-11-14T20:28:14.192Z,13.77
2022-11-14T20:31:08.172Z,11.30
2022-11-14T20:33:54.752Z,14.13
2022-11-14T20:37:10.026Z,9.63
2022-11-14T20:39:52.431Z,11.13
2022-11-14T20:42:38.327Z,12.25
2022-11-14T20:45:25.749Z,9.27
2022-11-14T20:48:12.793Z,12.15
2022-11-14T20:51:06.993Z,10.43
2022-11-14T20:54:44.454Z,12.10
2022-11-14T20:59:03.087Z,12.35
2022-11-14T21:27:27.955Z,12.43
2022-11-14T21:34:03.704Z,9.23
2022-11-14T21:38:18.606Z,9.32
2022-11-14T21:41:12.387Z,8.40
2022-11-14T21:44:10.998Z,10.57
2022-11-14T21:47:59.133Z,8.95
2022-11-14T21:51:12.769Z,8.02
2022-11-14T21:54:23.099Z,8.45
2022-11-14T21:57:12.698Z,9.68
2022-11-14T21:59:57.873Z,10.73
2022-11-14T22:03:01.900Z,10.60
2022-11-14T22:05:47.082Z,10.50
2022-11-14T22:08:32.331Z,11.82
2022-11-14T22:11:17.502Z,10.43
2022-11-14T22:14:02.740Z,10.35
2022-11-14T22:16:50.820Z,10.30
2022-11-14T22:19:36.080Z,10.98
2022-11-14T22:22:21.406Z,9.68
2022-11-14T22:25:06.740Z,8.98
2022-11-14T22:27:55.262Z,12.13
2022-11-14T22:30:40.577Z,10.73
2022-11-14T22:33:34.858Z,10.02
2022-11-14T22:36:22.148Z,8.68
2022-11-14T22:39:07.328Z,8.85
2022-11-14T22:41:52.386Z,8.48
2022-11-14T22:44:37.545Z,11.18
2022-11-14T22:47:22.533Z,11.50
2022-11-14T22:50:08.150Z,9.35
2022-11-14T22:52:54.596Z,9.60
2022-11-14T22:55:47.917Z,10.65
2022-11-14T22:58:35.818Z,15.95
